sensor_id;sensor_type;location;lat;lon;timestamp;temperature;humidity
26505;DHT22;19493;48.042;7.584;2022-11-15T00:00:47;10.80;99.90
26505;DHT22;19493;48.042;7.584;2022-11-15T00:03:15;10.80;99.90
26505;DHT22;19493;48.042;7.584;2022-11-15T00:05:41;10.90;99.90
26505;DHT22;19493;48.042;7.584;2022-11-15T00:08:06;10.90;99.90
26505;DHT22;19493;48.042;7.584;2022-11-15T00:10:32;10.90;99.90
26505;DHT22;19493;48.042;7.584;2022-11-15T00:12:57;10.90;99.90
26505;DHT22;19493;48.042;7.584;2022-11-15T00:15:23;10.90;99.90
26505;DHT22;19493;48.042;7.584;2022-11-15T00:17:49;10.90;99.90
26505;DHT22;19493;48.042;7.584;2022-11-15T00:20:16;10.80;99.90
26505;DHT22;19493;48.042;7.584;2022-11-15T00:22:42;10.90;99.90
26505;DHT22;19493;48.042;7.584;2022-11-15T00:25:08;10.90;99.90
26505;DHT22;19493;48.042;7.584;2022-11-15T00:27:33;11.00;99.90
26505;DHT22;19493;48.042;7.584;2022-11-15T00:29:59;11.00;99.90
26505;DHT22;19493;48.042;7.584;2022-11-15T00:32:24;11.10;99.90
26505;DHT22;19493;48.042;7.584;2022-11-15T00:34:50;11.10;99.90
26505;DHT22;19493;48.042;7.584;2022-11-15T00:37:15;11.00;99.90
26505;DHT22;19493;48.042;7.584;2022-11-15T00:39:41;11.00;99.90
26505;DHT22;19493;48.042;7.584;2022-11-15T00:42:06;11.00;99.90
26505;DHT22;19493;48.042;7.584;2022-11-15T00:44:32;11.00;99.90
26505;DHT22;19493;48.042;7.584;2022-11-15T00:46:58;10.90;99.90
26505;DHT22;19493;48.042;7.584;2022-11-15T00:49:23;10.90;99.90
26505;DHT22;19493;48.042;7.584;2022-11-15T00:51:49;10.80;99.90
26505;DHT22;19493;48.042;7.584;2022-11-15T00:54:14;10.80;99.90
26505;DHT22;19493;48.042;7.584;2022-11-15T00:56:40;10.70;99.90
26505;DHT22;19493;48.042;7.584;2022-11-15T00:59:05;10.60;99.90
26505;DHT22;19493;48.042;7.584;2022-11-15T01:01:31;10.50;99.90
26505;DHT22;19493;48.042;7.584;2022-11-15T01:03:57;10.50;99.90
26505;DHT22;19493;48.042;7.584;2022-11-15T01:06:22;10.40;99.90
26505;DHT22;19493;48.042;7.584;2022-11-15T01:08:48;10.40;99.90
26505;DHT22;19493;48.042;7.584;2022-11-15T01:11:13;10.40;99.90
26505;DHT22;19493;48.042;7.584;2022-11-15T01:13:39;10.40;99.90
26505;DHT22;19493;48.042;7.584;2022-11-15T01:16:07;10.40;99.90
26505;DHT22;19493;48.042;7.584;2022-11-15T01:18:33;10.40;99.90
26505;DHT22;19493;48.042;7.584;2022-11-15T01:20:59;10.30;99.90
26505;DHT22;19493;48.042;7.584;2022-11-15T01:23:25;10.30;99.90
26505;DHT22;19493;48.042;7.584;2022-11-15T01:25:51;10.40;99.90
26505;DHT22;19493;48.042;7.584;2022-11-15T01:28:17;10.40;99.90
26505;DHT22;19493;48.042;7.584;2022-11-15T01:30:42;10.40;99.90
26505;DHT22;19493;48.042;7.584;2022-11-15T01:33:08;10.40;99.90
26505;DHT22;19493;48.042;7.584;2022-11-15T01:35:33;10.40;99.90
26505;DHT22;19493;48.042;7.584;2022-11-15T01:38:03;10.30;99.90
26505;DHT22;19493;48.042;7.584;2022-11-15T01:40:28;10.30;99.90
26505;DHT22;19493;48.042;7.584;2022-11-15T01:42:54;10.30;99.90
26505;DHT22;19493;48.042;7.584;2022-11-15T01:45:19;10.30;99.90
26505;DHT22;19493;48.042;7.584;2022-11-15T01:47:53;10.30;99.90
26505;DHT22;19493;48.042;7.584;2022-11-15T01:50:23;10.20;99.90
26505;DHT22;19493;48.042;7.584;2022-11-15T01:52:50;10.20;99.90
26505;DHT22;19493;48.042;7.584;2022-11-15T01:55:22;10.30;99.90
26505;DHT22;19493;48.042;7.584;2022-11-15T01:57:52;10.30;99.90
26505;DHT22;19493;48.042;7.584;2022-11-15T02:00:18;10.40;99.90
26505;DHT22;19493;48.042;7.584;2022-11-15T02:02:44;10.40;99.90
26505;DHT22;19493;48.042;7.584;2022-11-15T02:05:10;10.40;99.90
26505;DHT22;19493;48.042;7.584;2022-11-15T02:07:36;10.40;99.90
26505;DHT22;19493;48.042;7.584;2022-11-15T02:10:17;10.40;99.90
26505;DHT22;19493;48.042;7.584;2022-11-15T02:12:43;10.40;99.90
26505;DHT22;19493;48.042;7.584;2022-11-15T02:15:10;10.40;99.90
26505;DHT22;19493;48.042;7.584;2022-11-15T02:39:12;10.30;99.90
26505;DHT22;19493;48.042;7.584;2022-11-15T02:41:51;10.30;99.90
26505;DHT22;19493;48.042;7.584;2022-11-15T02:44:23;10.20;99.90
26505;DHT22;19493;48.042;7.584;2022-11-15T02:47:03;10.20;99.90
26505;DHT22;19493;48.042;7.584;2022-11-15T02:49:40;10.30;99.90
26505;DHT22;19493;48.042;7.584;2022-11-15T02:52:07;10.40;99.90
26505;DHT22;19493;48.042;7.584;2022-11-15T02:54:34;10.40;99.90
26505;DHT22;19493;48.042;7.584;2022-11-15T02:57:10;10.50;99.90
26505;DHT22;19493;48.042;7.584;2022-11-15T03:02:23;10.60;99.90
26505;DHT22;19493;48.042;7.584;2022-11-15T03:05:26;10.60;99.90
26505;DHT22;19493;48.042;7.584;2022-11-15T03:08:22;10.70;99.90
26505;DHT22;19493;48.042;7.584;2022-11-15T03:11:14;10.70;99.90
26505;DHT22;19493;48.042;7.584;2022-11-15T03:19:08;10.90;99.90
26505;DHT22;19493;48.042;7.584;2022-11-15T03:21:35;10.90;99.90
26505;DHT22;19493;48.042;7.584;2022-11-15T03:24:05;11.00;99.90
26505;DHT22;19493;48.042;7.584;2022-11-15T03:26:33;11.00;99.90
26505;DHT22;19493;48.042;7.584;2022-11-15T03:29:14;11.10;99.90
26505;DHT22;19493;48.042;7.584;2022-11-15T03:31:48;11.10;99.90
26505;DHT22;19493;48.042;7.584;2022-11-15T03:34:25;11.20;99.90
26505;DHT22;19493;48.042;7.584;2022-11-15T03:36:52;11.20;99.90
26505;DHT22;19493;48.042;7.584;2022-11-15T03:39:19;11.20;99.90
26505;DHT22;19493;48.042;7.584;2022-11-15T03:44:49;11.40;99.90
26505;DHT22;19493;48.042;7.584;2022-11-15T03:47:32;11.40;99.90
26505;DHT22;19493;48.042;7.584;2022-11-15T03:50:03;11.60;99.90
26505;DHT22;19493;48.042;7.584;2022-11-15T03:52:32;11.70;99.90
26505;DHT22;19493;48.042;7.584;2022-11-15T03:55:01;11.70;99.90
26505;DHT22;19493;48.042;7.584;2022-11-15T03:57:27;11.80;99.90
26505;DHT22;19493;48.042;7.584;2022-11-15T03:59:53;11.80;99.90
26505;DHT22;19493;48.042;7.584;2022-11-15T04:02:19;11.80;99.90
26505;DHT22;19493;48.042;7.584;2022-11-15T04:04:45;11.80;99.90
26505;DHT22;19493;48.042;7.584;2022-11-15T04:07:10;11.80;99.90
26505;DHT22;19493;48.042;7.584;2022-11-15T04:09:36;11.70;99.90
26505;DHT22;19493;48.042;7.584;2022-11-15T04:12:24;11.70;99.90
26505;DHT22;19493;48.042;7.584;2022-11-15T04:15:00;11.60;99.90
26505;DHT22;19493;48.042;7.584;2022-11-15T04:17:36;11.60;99.90
26505;DHT22;19493;48.042;7.584;2022-11-15T04:20:03;11.50;99.90
26505;DHT22;19493;48.042;7.584;2022-11-15T04:22:48;11.50;99.90
26505;DHT22;19493;48.042;7.584;2022-11-15T04:25:31;11.50;99.90
26505;DHT22;19493;48.042;7.584;2022-11-15T04:27:57;11.50;99.90
26505;DHT22;19493;48.042;7.584;2022-11-15T04:30:23;11.50;99.90
26505;DHT22;19493;48.042;7.584;2022-11-15T04:32:48;11.60;99.90
26505;DHT22;19493;48.042;7.584;2022-11-15T04:35:14;11.50;99.90
26505;DHT22;19493;48.042;7.584;2022-11-15T04:37:39;11.50;99.90
26505;DHT22;19493;48.042;7.584;2022-11-15T04:40:05;11.60;99.90
26505;DHT22;19493;48.042;7.584;2022-11-15T04:42:31;11.60;99.90
26505;DHT22;19493;48.042;7.584;2022-11-15T04:44:57;11.70;99.90
26505;DHT22;19493;48.042;7.584;2022-11-15T04:47:22;11.80;99.90
26505;DHT22;19493;48.042;7.584;2022-11-15T04:49:48;11.90;99.90
26505;DHT22;19493;48.042;7.584;2022-11-15T04:52:13;11.90;99.90
26505;DHT22;19493;48.042;7.584;2022-11-15T04:54:39;12.00;99.90
26505;DHT22;19493;48.042;7.584;2022-11-15T04:57:04;12.10;99.90
26505;DHT22;19493;48.042;7.584;2022-11-15T04:59:30;12.10;99.90
26505;DHT22;19493;48.042;7.584;2022-11-15T05:01:55;12.20;99.90
26505;DHT22;19493;48.042;7.584;2022-11-15T05:04:21;12.30;99.90
26505;DHT22;19493;48.042;7.584;2022-11-15T05:06:51;12.30;99.90
26505;DHT22;19493;48.042;7.584;2022-11-15T05:09:20;12.30;99.90
26505;DHT22;19493;48.042;7.584;2022-11-15T05:11:46;12.30;99.90
26505;DHT22;19493;48.042;7.584;2022-11-15T05:14:12;12.30;99.90
26505;DHT22;19493;48.042;7.584;2022-11-15T05:16:38;12.30;99.90
26505;DHT22;19493;48.042;7.584;2022-11-15T05:19:05;12.30;99.90
26505;DHT22;19493;48.042;7.584;2022-11-15T05:21:31;12.40;99.90
26505;DHT22;19493;48.042;7.584;2022-11-15T05:23:57;12.40;99.90
26505;DHT22;19493;48.042;7.584;2022-11-15T05:26:22;12.40;99.90
26505;DHT22;19493;48.042;7.584;2022-11-15T05:28:53;12.40;99.90
26505;DHT22;19493;48.042;7.584;2022-11-15T05:31:19;12.50;99.90
26505;DHT22;19493;48.042;7.584;2022-11-15T05:33:45;12.50;99.90
26505;DHT22;19493;48.042;7.584;2022-11-15T05:36:25;12.50;99.90
26505;DHT22;19493;48.042;7.584;2022-11-15T05:38:53;12.50;99.90
26505;DHT22;19493;48.042;7.584;2022-11-15T05:41:21;12.50;99.90
26505;DHT22;19493;48.042;7.584;2022-11-15T05:43:48;12.50;99.90
26505;DHT22;19493;48.042;7.584;2022-11-15T05:46:15;12.40;99.90
26505;DHT22;19493;48.042;7.584;2022-11-15T05:48:45;12.40;99.90
26505;DHT22;19493;48.042;7.584;2022-11-15T05:51:14;12.40;99.90
26505;DHT22;19493;48.042;7.584;2022-11-15T05:53:40;12.30;99.90
26505;DHT22;19493;48.042;7.584;2022-11-15T05:56:06;12.20;99.90
26505;DHT22;19493;48.042;7.584;2022-11-15T05:58:34;12.00;99.90
26505;DHT22;19493;48.042;7.584;2022-11-15T06:01:00;12.00;99.90
26505;DHT22;19493;48.042;7.584;2022-11-15T06:03:26;11.90;99.90
26505;DHT22;19493;48.042;7.584;2022-11-15T06:05:51;11.80;99.90
26505;DHT22;19493;48.042;7.584;2022-11-15T06:08:17;11.80;99.90
26505;DHT22;19493;48.042;7.584;2022-11-15T06:10:45;11.70;99.90
26505;DHT22;19493;48.042;7.584;2022-11-15T06:13:11;11.60;99.90
26505;DHT22;19493;48.042;7.584;2022-11-15T06:15:36;11.60;99.90
26505;DHT22;19493;48.042;7.584;2022-11-15T06:18:02;11.60;99.90
26505;DHT22;19493;48.042;7.584;2022-11-15T06:20:29;11.50;99.90
26505;DHT22;19493;48.042;7.584;2022-11-15T06:22:59;11.50;99.90
26505;DHT22;19493;48.042;7.584;2022-11-15T06:25:26;11.40;99.90
26505;DHT22;19493;48.042;7.584;2022-11-15T06:27:56;11.40;99.90
26505;DHT22;19493;48.042;7.584;2022-11-15T06:30:23;11.40;99.90
26505;DHT22;19493;48.042;7.584;2022-11-15T06:32:48;11.40;99.90
26505;DHT22;19493;48.042;7.584;2022-11-15T06:35:14;11.40;99.90
26505;DHT22;19493;48.042;7.584;2022-11-15T06:37:40;11.40;99.90
26505;DHT22;19493;48.042;7.584;2022-11-15T06:40:07;11.30;99.90
26505;DHT22;19493;48.042;7.584;2022-11-15T06:42:33;11.30;99.90
26505;DHT22;19493;48.042;7.584;2022-11-15T06:44:59;11.30;99.90
26505;DHT22;19493;48.042;7.584;2022-11-15T06:47:24;11.30;99.90
26505;DHT22;19493;48.042;7.584;2022-11-15T06:49:50;11.20;99.90
26505;DHT22;19493;48.042;7.584;2022-11-15T06:52:15;11.10;99.90
26505;DHT22;19493;48.042;7.584;2022-11-15T06:54:44;11.00;99.90
26505;DHT22;19493;48.042;7.584;2022-11-15T06:57:09;10.80;99.90
26505;DHT22;19493;48.042;7.584;2022-11-15T06:59:36;10.70;99.90
26505;DHT22;19493;48.042;7.584;2022-11-15T07:02:01;10.60;99.90
26505;DHT22;19493;48.042;7.584;2022-11-15T07:04:27;10.60;99.90
26505;DHT22;19493;48.042;7.584;2022-11-15T07:06:52;10.50;99.90
26505;DHT22;19493;48.042;7.584;2022-11-15T07:09:18;10.50;99.90
26505;DHT22;19493;48.042;7.584;2022-11-15T07:11:44;10.40;99.90
26505;DHT22;19493;48.042;7.584;2022-11-15T07:14:09;10.40;99.90
26505;DHT22;19493;48.042;7.584;2022-11-15T07:16:36;10.40;99.90
26505;DHT22;19493;48.042;7.584;2022-11-15T07:19:02;10.40;99.90
26505;DHT22;19493;48.042;7.584;2022-11-15T07:21:27;10.40;99.90
26505;DHT22;19493;48.042;7.584;2022-11-15T07:23:53;10.40;99.90
26505;DHT22;19493;48.042;7.584;2022-11-15T07:26:18;10.40;99.90
26505;DHT22;19493;48.042;7.584;2022-11-15T07:28:44;10.50;99.90
26505;DHT22;19493;48.042;7.584;2022-11-15T07:31:10;10.50;99.90
26505;DHT22;19493;48.042;7.584;2022-11-15T07:33:36;10.60;99.90
26505;DHT22;19493;48.042;7.584;2022-11-15T07:36:03;10.60;99.90
26505;DHT22;19493;48.042;7.584;2022-11-15T07:38:30;10.60;99.90
26505;DHT22;19493;48.042;7.584;2022-11-15T07:41:00;10.60;99.90
26505;DHT22;19493;48.042;7.584;2022-11-15T07:43:26;10.60;99.90
26505;DHT22;19493;48.042;7.584;2022-11-15T07:45:56;10.60;99.90
26505;DHT22;19493;48.042;7.584;2022-11-15T07:48:22;10.60;99.90
26505;DHT22;19493;48.042;7.584;2022-11-15T07:50:48;10.60;99.90
26505;DHT22;19493;48.042;7.584;2022-11-15T07:53:13;10.70;99.90
26505;DHT22;19493;48.042;7.584;2022-11-15T07:55:40;10.70;99.90
26505;DHT22;19493;48.042;7.584;2022-11-15T07:58:08;10.70;99.90
26505;DHT22;19493;48.042;7.584;2022-11-15T08:00:34;10.70;99.90
26505;DHT22;19493;48.042;7.584;2022-11-15T08:03:08;10.70;99.90
26505;DHT22;19493;48.042;7.584;2022-11-15T08:05:35;10.80;99.90
26505;DHT22;19493;48.042;7.584;2022-11-15T08:08:02;10.80;99.90
26505;DHT22;19493;48.042;7.584;2022-11-15T08:10:28;10.80;99.90
26505;DHT22;19493;48.042;7.584;2022-11-15T08:13:01;10.80;99.90
26505;DHT22;19493;48.042;7.584;2022-11-15T08:15:28;10.80;99.90
26505;DHT22;19493;48.042;7.584;2022-11-15T08:17:58;10.90;99.90
26505;DHT22;19493;48.042;7.584;2022-11-15T08:20:25;11.00;99.90
26505;DHT22;19493;48.042;7.584;2022-11-15T08:22:51;11.00;99.90
26505;DHT22;19493;48.042;7.584;2022-11-15T08:25:17;11.10;99.90
26505;DHT22;19493;48.042;7.584;2022-11-15T08:27:43;11.10;99.90
26505;DHT22;19493;48.042;7.584;2022-11-15T08:30:09;11.20;99.90
26505;DHT22;19493;48.042;7.584;2022-11-15T08:32:34;11.20;99.90
26505;DHT22;19493;48.042;7.584;2022-11-15T08:35:00;11.30;99.90
26505;DHT22;19493;48.042;7.584;2022-11-15T08:37:26;11.40;99.90
26505;DHT22;19493;48.042;7.584;2022-11-15T08:39:51;11.40;99.90
26505;DHT22;19493;48.042;7.584;2022-11-15T08:42:17;11.40;99.90
26505;DHT22;19493;48.042;7.584;2022-11-15T08:44:42;11.40;99.90
26505;DHT22;19493;48.042;7.584;2022-11-15T08:47:11;11.50;99.90
26505;DHT22;19493;48.042;7.584;2022-11-15T08:49:37;11.50;99.90
26505;DHT22;19493;48.042;7.584;2022-11-15T08:52:03;11.50;99.90
26505;DHT22;19493;48.042;7.584;2022-11-15T08:54:28;11.50;99.90
26505;DHT22;19493;48.042;7.584;2022-11-15T08:56:54;11.60;99.90
26505;DHT22;19493;48.042;7.584;2022-11-15T08:59:19;11.60;99.90
26505;DHT22;19493;48.042;7.584;2022-11-15T09:01:45;11.80;99.90
26505;DHT22;19493;48.042;7.584;2022-11-15T09:04:11;11.80;99.90
26505;DHT22;19493;48.042;7.584;2022-11-15T09:06:36;11.90;99.90
26505;DHT22;19493;48.042;7.584;2022-11-15T09:09:02;12.00;99.90
26505;DHT22;19493;48.042;7.584;2022-11-15T09:11:28;12.00;99.90
26505;DHT22;19493;48.042;7.584;2022-11-15T09:13:53;12.10;99.90
26505;DHT22;19493;48.042;7.584;2022-11-15T09:16:19;12.20;99.90
26505;DHT22;19493;48.042;7.584;2022-11-15T09:18:45;12.30;99.90
26505;DHT22;19493;48.042;7.584;2022-11-15T09:21:11;12.40;99.90
26505;DHT22;19493;48.042;7.584;2022-11-15T09:23:37;12.60;99.90
26505;DHT22;19493;48.042;7.584;2022-11-15T09:26:04;12.70;99.90
26505;DHT22;19493;48.042;7.584;2022-11-15T09:28:30;12.80;99.90
26505;DHT22;19493;48.042;7.584;2022-11-15T09:30:57;12.80;99.90
26505;DHT22;19493;48.042;7.584;2022-11-15T09:33:24;12.90;99.90
26505;DHT22;19493;48.042;7.584;2022-11-15T09:35:49;12.80;99.90
26505;DHT22;19493;48.042;7.584;2022-11-15T09:38:15;12.80;99.90
26505;DHT22;19493;48.042;7.584;2022-11-15T09:40:41;12.80;99.90
26505;DHT22;19493;48.042;7.584;2022-11-15T09:43:17;12.80;99.90
26505;DHT22;19493;48.042;7.584;2022-11-15T09:49:04;12.80;99.90
26505;DHT22;19493;48.042;7.584;2022-11-15T09:51:56;12.90;99.90
26505;DHT22;19493;48.042;7.584;2022-11-15T09:54:39;13.10;99.90
26505;DHT22;19493;48.042;7.584;2022-11-15T09:57:12;13.20;99.90
26505;DHT22;19493;48.042;7.584;2022-11-15T09:59:58;13.30;99.90
26505;DHT22;19493;48.042;7.584;2022-11-15T10:05:23;13.30;99.90
26505;DHT22;19493;48.042;7.584;2022-11-15T10:08:22;13.30;99.90
26505;DHT22;19493;48.042;7.584;2022-11-15T10:10:53;13.40;99.90
26505;DHT22;19493;48.042;7.584;2022-11-15T10:13:25;13.30;99.90
26505;DHT22;19493;48.042;7.584;2022-11-15T10:15:54;13.30;99.90
26505;DHT22;19493;48.042;7.584;2022-11-15T10:21:17;13.50;99.90
26505;DHT22;19493;48.042;7.584;2022-11-15T10:23:45;13.60;99.90
26505;DHT22;19493;48.042;7.584;2022-11-15T10:26:14;13.60;99.90
26505;DHT22;19493;48.042;7.584;2022-11-15T10:28:41;13.60;99.90
26505;DHT22;19493;48.042;7.584;2022-11-15T10:31:25;13.70;99.90
26505;DHT22;19493;48.042;7.584;2022-11-15T10:33:59;13.80;99.90
26505;DHT22;19493;48.042;7.584;2022-11-15T10:36:35;13.90;99.90
26505;DHT22;19493;48.042;7.584;2022-11-15T10:39:02;13.90;99.90
26505;DHT22;19493;48.042;7.584;2022-11-15T10:44:10;14.00;99.90
26505;DHT22;19493;48.042;7.584;2022-11-15T10:46:39;14.00;99.90
26505;DHT22;19493;48.042;7.584;2022-11-15T10:57:36;13.70;99.90
26505;DHT22;19493;48.042;7.584;2022-11-15T11:00:54;13.60;99.90
26505;DHT22;19493;48.042;7.584;2022-11-15T11:06:05;13.40;99.90
26505;DHT22;19493;48.042;7.584;2022-11-15T11:08:31;13.40;99.90
26505;DHT22;19493;48.042;7.584;2022-11-15T11:10:59;13.40;99.90
26505;DHT22;19493;48.042;7.584;2022-11-15T11:13:29;13.40;99.90
26505;DHT22;19493;48.042;7.584;2022-11-15T11:16:30;13.40;99.90
26505;DHT22;19493;48.042;7.584;2022-11-15T11:19:04;13.40;99.90
26505;DHT22;19493;48.042;7.584;2022-11-15T11:21:51;13.50;99.90
26505;DHT22;19493;48.042;7.584;2022-11-15T11:24:39;13.70;99.90
26505;DHT22;19493;48.042;7.584;2022-11-15T11:30:12;13.70;99.90
26505;DHT22;19493;48.042;7.584;2022-11-15T11:35:29;13.60;99.90
26505;DHT22;19493;48.042;7.584;2022-11-15T11:38:17;13.60;99.90
26505;DHT22;19493;48.042;7.584;2022-11-15T11:41:04;13.60;99.90
26505;DHT22;19493;48.042;7.584;2022-11-15T11:46:17;13.70;99.90
26505;DHT22;19493;48.042;7.584;2022-11-15T11:48:51;13.80;99.90
26505;DHT22;19493;48.042;7.584;2022-11-15T11:51:26;13.70;99.90
26505;DHT22;19493;48.042;7.584;2022-11-15T11:56:45;13.70;99.90
26505;DHT22;19493;48.042;7.584;2022-11-15T12:02:21;13.90;99.90
26505;DHT22;19493;48.042;7.584;2022-11-15T12:04:52;14.10;99.90
26505;DHT22;19493;48.042;7.584;2022-11-15T12:07:24;14.20;99.90
26505;DHT22;19493;48.042;7.584;2022-11-15T12:09:58;14.30;99.90
26505;DHT22;19493;48.042;7.584;2022-11-15T12:12:49;14.30;99.90
26505;DHT22;19493;48.042;7.584;2022-11-15T12:15:27;14.20;99.90
26505;DHT22;19493;48.042;7.584;2022-11-15T12:17:56;14.00;99.90
26505;DHT22;19493;48.042;7.584;2022-11-15T12:20:33;13.90;99.90
26505;DHT22;19493;48.042;7.584;2022-11-15T12:23:19;13.70;99.90
26505;DHT22;19493;48.042;7.584;2022-11-15T12:25:51;13.50;99.90
26505;DHT22;19493;48.042;7.584;2022-11-15T12:31:11;13.30;99.90
26505;DHT22;19493;48.042;7.584;2022-11-15T12:33:47;13.30;99.90
26505;DHT22;19493;48.042;7.584;2022-11-15T12:41:30;13.30;99.90
26505;DHT22;19493;48.042;7.584;2022-11-15T12:43:56;13.30;99.90
26505;DHT22;19493;48.042;7.584;2022-11-15T12:49:00;13.20;99.90
26505;DHT22;19493;48.042;7.584;2022-11-15T13:02:22;13.00;99.90
26505;DHT22;19493;48.042;7.584;2022-11-15T13:04:50;13.00;99.90
26505;DHT22;19493;48.042;7.584;2022-11-15T13:10:45;12.90;99.90
26505;DHT22;19493;48.042;7.584;2022-11-15T13:17:54;13.00;99.90
26505;DHT22;19493;48.042;7.584;2022-11-15T13:20:31;13.00;99.90
26505;DHT22;19493;48.042;7.584;2022-11-15T13:23:14;13.00;99.90
26505;DHT22;19493;48.042;7.584;2022-11-15T13:25:46;13.00;99.90
26505;DHT22;19493;48.042;7.584;2022-11-15T13:30:41;13.00;99.90
26505;DHT22;19493;48.042;7.584;2022-11-15T13:33:15;13.00;99.90
26505;DHT22;19493;48.042;7.584;2022-11-15T13:35:46;13.10;99.90
26505;DHT22;19493;48.042;7.584;2022-11-15T13:40:51;13.10;99.90
26505;DHT22;19493;48.042;7.584;2022-11-15T13:48:36;13.10;99.90
26505;DHT22;19493;48.042;7.584;2022-11-15T13:56:41;13.20;99.90
26505;DHT22;19493;48.042;7.584;2022-11-15T13:59:29;13.10;99.90
26505;DHT22;19493;48.042;7.584;2022-11-15T14:01:57;13.10;99.90
26505;DHT22;19493;48.042;7.584;2022-11-15T14:04:25;13.10;99.90
26505;DHT22;19493;48.042;7.584;2022-11-15T14:06:56;13.20;99.90
26505;DHT22;19493;48.042;7.584;2022-11-15T14:09:33;13.30;99.90
26505;DHT22;19493;48.042;7.584;2022-11-15T14:12:00;13.30;99.90
26505;DHT22;19493;48.042;7.584;2022-11-15T14:14:28;13.30;99.90
26505;DHT22;19493;48.042;7.584;2022-11-15T14:16:56;13.40;99.90
26505;DHT22;19493;48.042;7.584;2022-11-15T14:22:10;13.50;99.90
26505;DHT22;19493;48.042;7.584;2022-11-15T14:24:36;13.50;99.90
26505;DHT22;19493;48.042;7.584;2022-11-15T14:27:24;13.50;99.90
26505;DHT22;19493;48.042;7.584;2022-11-15T14:29:50;13.60;99.90
26505;DHT22;19493;48.042;7.584;2022-11-15T14:32:21;13.60;99.90
26505;DHT22;19493;48.042;7.584;2022-11-15T14:35:00;13.60;99.90
26505;DHT22;19493;48.042;7.584;2022-11-15T14:37:31;13.60;99.90
26505;DHT22;19493;48.042;7.584;2022-11-15T14:40:04;13.50;99.90
26505;DHT22;19493;48.042;7.584;2022-11-15T14:42:31;13.50;99.90
26505;DHT22;19493;48.042;7.584;2022-11-15T14:44:57;13.40;99.90
26505;DHT22;19493;48.042;7.584;2022-11-15T14:47:22;13.30;99.90
26505;DHT22;19493;48.042;7.584;2022-11-15T14:49:48;13.20;99.90
26505;DHT22;19493;48.042;7.584;2022-11-15T14:54:42;13.10;99.90
26505;DHT22;19493;48.042;7.584;2022-11-15T14:57:08;13.00;99.90
26505;DHT22;19493;48.042;7.584;2022-11-15T14:59:33;12.90;99.90
26505;DHT22;19493;48.042;7.584;2022-11-15T15:01:59;12.90;99.90
26505;DHT22;19493;48.042;7.584;2022-11-15T15:04:24;12.90;99.90
26505;DHT22;19493;48.042;7.584;2022-11-15T15:06:50;12.80;99.90
26505;DHT22;19493;48.042;7.584;2022-11-15T15:09:15;12.70;99.90
26505;DHT22;19493;48.042;7.584;2022-11-15T15:11:41;12.70;99.90
26505;DHT22;19493;48.042;7.584;2022-11-15T15:14:08;12.60;99.90
26505;DHT22;19493;48.042;7.584;2022-11-15T15:16:33;12.50;99.90
26505;DHT22;19493;48.042;7.584;2022-11-15T15:18:59;12.50;99.90
26505;DHT22;19493;48.042;7.584;2022-11-15T15:21:27;12.40;99.90
26505;DHT22;19493;48.042;7.584;2022-11-15T15:23:53;12.40;99.90
26505;DHT22;19493;48.042;7.584;2022-11-15T15:26:22;12.30;99.90
26505;DHT22;19493;48.042;7.584;2022-11-15T15:28:48;12.20;99.90
26505;DHT22;19493;48.042;7.584;2022-11-15T15:31:16;12.20;99.90
26505;DHT22;19493;48.042;7.584;2022-11-15T15:33:42;12.10;99.90
26505;DHT22;19493;48.042;7.584;2022-11-15T15:36:12;12.10;99.90
26505;DHT22;19493;48.042;7.584;2022-11-15T15:38:38;12.00;99.90
26505;DHT22;19493;48.042;7.584;2022-11-15T15:41:11;12.00;99.90
26505;DHT22;19493;48.042;7.584;2022-11-15T15:43:37;12.00;99.90
26505;DHT22;19493;48.042;7.584;2022-11-15T15:46:03;12.00;99.90
26505;DHT22;19493;48.042;7.584;2022-11-15T15:48:28;12.00;99.90
26505;DHT22;19493;48.042;7.584;2022-11-15T15:50:54;12.00;99.90
26505;DHT22;19493;48.042;7.584;2022-11-15T15:55:55;11.90;99.90
26505;DHT22;19493;48.042;7.584;2022-11-15T15:58:20;11.90;99.90
26505;DHT22;19493;48.042;7.584;2022-11-15T16:00:46;11.80;99.90
26505;DHT22;19493;48.042;7.584;2022-11-15T16:03:11;11.80;99.90
26505;DHT22;19493;48.042;7.584;2022-11-15T16:05:37;11.70;99.90
26505;DHT22;19493;48.042;7.584;2022-11-15T16:08:03;11.70;99.90
26505;DHT22;19493;48.042;7.584;2022-11-15T16:10:31;11.70;99.90
26505;DHT22;19493;48.042;7.584;2022-11-15T16:12:57;11.70;99.90
26505;DHT22;19493;48.042;7.584;2022-11-15T16:15:26;11.60;99.90
26505;DHT22;19493;48.042;7.584;2022-11-15T16:17:53;11.60;99.90
26505;DHT22;19493;48.042;7.584;2022-11-15T16:20:40;11.60;99.90
26505;DHT22;19493;48.042;7.584;2022-11-15T16:23:10;11.50;99.90
26505;DHT22;19493;48.042;7.584;2022-11-15T16:25:49;11.50;99.90
26505;DHT22;19493;48.042;7.584;2022-11-15T16:28:18;11.50;99.90
26505;DHT22;19493;48.042;7.584;2022-11-15T16:30:43;11.50;99.90
26505;DHT22;19493;48.042;7.584;2022-11-15T16:33:09;11.50;99.90
26505;DHT22;19493;48.042;7.584;2022-11-15T16:35:35;11.50;99.90
26505;DHT22;19493;48.042;7.584;2022-11-15T16:38:01;11.40;99.90
26505;DHT22;19493;48.042;7.584;2022-11-15T16:40:33;11.40;99.90
26505;DHT22;19493;48.042;7.584;2022-11-15T16:43:00;11.40;99.90
26505;DHT22;19493;48.042;7.584;2022-11-15T16:45:31;11.30;99.90
26505;DHT22;19493;48.042;7.584;2022-11-15T16:47:58;11.40;99.90
26505;DHT22;19493;48.042;7.584;2022-11-15T16:50:26;11.40;99.90
26505;DHT22;19493;48.042;7.584;2022-11-15T16:52:58;11.30;99.90
26505;DHT22;19493;48.042;7.584;2022-11-15T16:55:26;11.30;99.90
26505;DHT22;19493;48.042;7.584;2022-11-15T16:57:52;11.30;99.90
26505;DHT22;19493;48.042;7.584;2022-11-15T17:00:18;11.30;99.90
26505;DHT22;19493;48.042;7.584;2022-11-15T17:02:46;11.20;99.90
26505;DHT22;19493;48.042;7.584;2022-11-15T17:05:12;11.20;99.90
26505;DHT22;19493;48.042;7.584;2022-11-15T17:07:39;11.20;99.90
26505;DHT22;19493;48.042;7.584;2022-11-15T17:10:05;11.20;99.90
26505;DHT22;19493;48.042;7.584;2022-11-15T17:12:35;11.20;99.90
26505;DHT22;19493;48.042;7.584;2022-11-15T17:15:02;11.10;99.90
26505;DHT22;19493;48.042;7.584;2022-11-15T17:17:29;11.20;99.90
26505;DHT22;19493;48.042;7.584;2022-11-15T17:19:54;11.20;99.90
26505;DHT22;19493;48.042;7.584;2022-11-15T17:22:20;11.20;99.90
26505;DHT22;19493;48.042;7.584;2022-11-15T17:24:46;11.20;99.90
26505;DHT22;19493;48.042;7.584;2022-11-15T17:27:11;11.20;99.90
26505;DHT22;19493;48.042;7.584;2022-11-15T17:29:37;11.20;99.90
26505;DHT22;19493;48.042;7.584;2022-11-15T17:32:03;11.20;99.90
26505;DHT22;19493;48.042;7.584;2022-11-15T17:34:28;11.20;99.90
26505;DHT22;19493;48.042;7.584;2022-11-15T17:36:54;11.20;99.90
26505;DHT22;19493;48.042;7.584;2022-11-15T17:39:19;11.20;99.90
26505;DHT22;19493;48.042;7.584;2022-11-15T17:41:46;11.20;99.90
26505;DHT22;19493;48.042;7.584;2022-11-15T17:44:12;11.20;99.90